sensor_id;sensor_type;location;lat;lon;timestamp;P1;durP1;ratioP1;P2;durP2;ratioP2
80957;SDS011;70419;42.700;23.316;2023-07-31T00:01:15;9.13;;;3.00;;
80957;SDS011;70419;42.700;23.316;2023-07-31T00:03:41;4.85;;;2.90;;
80957;SDS011;70419;42.700;23.316;2023-07-31T00:06:06;6.30;;;3.13;;
80957;SDS011;70419;42.700;23.316;2023-07-31T00:08:32;5.80;;;3.55;;
80957;SDS011;70419;42.700;23.316;2023-07-31T00:10:58;4.93;;;2.97;;
80957;SDS011;70419;42.700;23.316;2023-07-31T00:13:24;4.60;;;2.90;;
80957;SDS011;70419;42.700;23.316;2023-07-31T00:15:49;6.20;;;3.15;;
80957;SDS011;70419;42.700;23.316;2023-07-31T00:18:16;5.35;;;3.22;;
80957;SDS011;70419;42.700;23.316;2023-07-31T00:20:42;5.30;;;3.08;;
80957;SDS011;70419;42.700;23.316;2023-07-31T00:23:08;5.40;;;2.90;;
80957;SDS011;70419;42.700;23.316;2023-07-31T00:25:34;6.03;;;2.72;;
80957;SDS011;70419;42.700;23.316;2023-07-31T00:27:59;6.45;;;3.50;;
80957;SDS011;70419;42.700;23.316;2023-07-31T00:30:25;5.53;;;3.60;;
80957;SDS011;70419;42.700;23.316;2023-07-31T00:32:52;6.13;;;3.60;;
80957;SDS011;70419;42.700;23.316;2023-07-31T00:35:17;9.68;;;4.07;;
80957;SDS011;70419;42.700;23.316;2023-07-31T00:37:43;5.43;;;3.50;;
80957;SDS011;70419;42.700;23.316;2023-07-31T00:40:09;5.82;;;3.63;;
80957;SDS011;70419;42.700;23.316;2023-07-31T00:42:35;6.10;;;3.70;;
80957;SDS011;70419;42.700;23.316;2023-07-31T00:45:01;6.85;;;3.72;;
80957;SDS011;70419;42.700;23.316;2023-07-31T00:47:27;6.85;;;3.90;;
80957;SDS011;70419;42.700;23.316;2023-07-31T00:49:53;6.85;;;3.80;;
80957;SDS011;70419;42.700;23.316;2023-07-31T00:52:18;8.40;;;4.68;;
80957;SDS011;70419;42.700;23.316;2023-07-31T00:54:45;8.30;;;4.80;;
80957;SDS011;70419;42.700;23.316;2023-07-31T00:57:11;7.00;;;5.22;;
80957;SDS011;70419;42.700;23.316;2023-07-31T00:59:37;7.43;;;6.03;;
80957;SDS011;70419;42.700;23.316;2023-07-31T01:02:03;8.85;;;6.32;;
80957;SDS011;70419;42.700;23.316;2023-07-31T01:04:29;8.93;;;6.03;;
80957;SDS011;70419;42.700;23.316;2023-07-31T01:06:56;9.15;;;6.65;;
80957;SDS011;70419;42.700;23.316;2023-07-31T01:12:27;12.20;;;7.43;;
80957;SDS011;70419;42.700;23.316;2023-07-31T01:15:08;10.95;;;8.30;;
80957;SDS011;70419;42.700;23.316;2023-07-31T01:17:37;10.05;;;7.82;;
80957;SDS011;70419;42.700;23.316;2023-07-31T01:20:05;12.55;;;9.40;;
80957;SDS011;70419;42.700;23.316;2023-07-31T01:28:19;15.35;;;10.32;;
80957;SDS011;70419;42.700;23.316;2023-07-31T01:30:50;12.73;;;9.93;;
80957;SDS011;70419;42.700;23.316;2023-07-31T01:33:16;12.68;;;10.65;;
80957;SDS011;70419;42.700;23.316;2023-07-31T01:35:45;13.07;;;10.98;;
80957;SDS011;70419;42.700;23.316;2023-07-31T01:38:13;14.73;;;11.80;;
80957;SDS011;70419;42.700;23.316;2023-07-31T01:40:42;16.65;;;12.18;;
80957;SDS011;70419;42.700;23.316;2023-07-31T01:43:08;17.15;;;13.73;;
80957;SDS011;70419;42.700;23.316;2023-07-31T01:45:34;19.83;;;14.75;;
80957;SDS011;70419;42.700;23.316;2023-07-31T01:48:00;18.45;;;14.48;;
80957;SDS011;70419;42.700;23.316;2023-07-31T01:50:25;19.67;;;14.65;;
80957;SDS011;70419;42.700;23.316;2023-07-31T01:52:51;25.23;;;15.80;;
80957;SDS011;70419;42.700;23.316;2023-07-31T01:55:17;21.40;;;16.70;;
80957;SDS011;70419;42.700;23.316;2023-07-31T01:57:43;23.63;;;16.15;;
80957;SDS011;70419;42.700;23.316;2023-07-31T02:00:08;22.38;;;16.30;;
80957;SDS011;70419;42.700;23.316;2023-07-31T02:02:35;22.45;;;16.77;;
80957;SDS011;70419;42.700;23.316;2023-07-31T02:05:00;20.63;;;16.10;;
80957;SDS011;70419;42.700;23.316;2023-07-31T02:07:26;27.48;;;17.90;;
80957;SDS011;70419;42.700;23.316;2023-07-31T02:09:51;23.33;;;16.60;;
80957;SDS011;70419;42.700;23.316;2023-07-31T02:12:18;22.83;;;16.75;;
80957;SDS011;70419;42.700;23.316;2023-07-31T02:14:44;23.25;;;16.48;;
80957;SDS011;70419;42.700;23.316;2023-07-31T02:17:10;20.98;;;16.52;;
80957;SDS011;70419;42.700;23.316;2023-07-31T02:19:35;21.02;;;16.48;;
80957;SDS011;70419;42.700;23.316;2023-07-31T02:22:01;23.23;;;18.05;;
80957;SDS011;70419;42.700;23.316;2023-07-31T02:24:27;24.95;;;18.42;;
80957;SDS011;70419;42.700;23.316;2023-07-31T02:26:53;22.13;;;17.27;;
80957;SDS011;70419;42.700;23.316;2023-07-31T02:29:18;23.88;;;17.52;;
80957;SDS011;70419;42.700;23.316;2023-07-31T02:31:44;23.50;;;18.98;;
80957;SDS011;70419;42.700;23.316;2023-07-31T02:34:10;22.83;;;17.27;;
80957;SDS011;70419;42.700;23.316;2023-07-31T02:36:36;22.13;;;17.73;;
80957;SDS011;70419;42.700;23.316;2023-07-31T02:39:02;23.35;;;17.27;;
80957;SDS011;70419;42.700;23.316;2023-07-31T02:41:27;23.58;;;18.05;;
80957;SDS011;70419;42.700;23.316;2023-07-31T02:43:53;23.48;;;17.33;;
80957;SDS011;70419;42.700;23.316;2023-07-31T02:46:19;27.77;;;17.45;;
80957;SDS011;70419;42.700;23.316;2023-07-31T02:48:49;22.80;;;18.13;;
80957;SDS011;70419;42.700;23.316;2023-07-31T02:51:15;21.27;;;17.50;;
80957;SDS011;70419;42.700;23.316;2023-07-31T02:53:40;22.35;;;17.63;;
80957;SDS011;70419;42.700;23.316;2023-07-31T02:56:07;23.00;;;17.38;;
80957;SDS011;70419;42.700;23.316;2023-07-31T02:58:33;23.58;;;17.58;;
80957;SDS011;70419;42.700;23.316;2023-07-31T03:00:59;27.10;;;17.95;;
80957;SDS011;70419;42.700;23.316;2023-07-31T03:03:25;21.45;;;17.25;;
80957;SDS011;70419;42.700;23.316;2023-07-31T03:05:50;24.73;;;18.17;;
80957;SDS011;70419;42.700;23.316;2023-07-31T03:08:16;22.50;;;18.25;;
80957;SDS011;70419;42.700;23.316;2023-07-31T03:10:42;24.33;;;18.33;;
80957;SDS011;70419;42.700;23.316;2023-07-31T03:13:08;24.25;;;19.23;;
80957;SDS011;70419;42.700;23.316;2023-07-31T03:15:33;22.67;;;17.90;;
80957;SDS011;70419;42.700;23.316;2023-07-31T03:17:59;21.63;;;17.38;;
80957;SDS011;70419;42.700;23.316;2023-07-31T03:20:26;21.77;;;17.27;;
80957;SDS011;70419;42.700;23.316;2023-07-31T03:22:52;21.98;;;17.73;;
80957;SDS011;70419;42.700;23.316;2023-07-31T03:25:17;21.30;;;17.20;;
80957;SDS011;70419;42.700;23.316;2023-07-31T03:27:43;25.23;;;18.40;;
80957;SDS011;70419;42.700;23.316;2023-07-31T03:30:09;23.80;;;18.02;;
80957;SDS011;70419;42.700;23.316;2023-07-31T03:32:35;22.10;;;18.05;;
80957;SDS011;70419;42.700;23.316;2023-07-31T03:35:00;24.90;;;18.88;;
80957;SDS011;70419;42.700;23.316;2023-07-31T03:37:26;22.85;;;18.92;;
80957;SDS011;70419;42.700;23.316;2023-07-31T03:39:52;23.60;;;18.10;;
80957;SDS011;70419;42.700;23.316;2023-07-31T03:42:18;25.83;;;18.75;;
80957;SDS011;70419;42.700;23.316;2023-07-31T03:44:44;23.52;;;18.52;;
80957;SDS011;70419;42.700;23.316;2023-07-31T03:47:11;22.85;;;18.85;;
80957;SDS011;70419;42.700;23.316;2023-07-31T03:49:36;24.83;;;18.33;;
80957;SDS011;70419;42.700;23.316;2023-07-31T03:52:02;25.13;;;18.48;;
80957;SDS011;70419;42.700;23.316;2023-07-31T03:54:28;22.90;;;18.23;;
80957;SDS011;70419;42.700;23.316;2023-07-31T03:56:53;27.75;;;18.98;;
80957;SDS011;70419;42.700;23.316;2023-07-31T03:59:19;24.80;;;18.73;;
80957;SDS011;70419;42.700;23.316;2023-07-31T04:01:45;26.23;;;18.33;;
80957;SDS011;70419;42.700;23.316;2023-07-31T04:04:11;22.80;;;17.90;;
80957;SDS011;70419;42.700;23.316;2023-07-31T04:06:36;28.98;;;19.42;;
80957;SDS011;70419;42.700;23.316;2023-07-31T04:09:02;26.17;;;19.00;;
80957;SDS011;70419;42.700;23.316;2023-07-31T04:11:28;29.45;;;20.27;;
80957;SDS011;70419;42.700;23.316;2023-07-31T04:13:54;27.83;;;19.00;;
80957;SDS011;70419;42.700;23.316;2023-07-31T04:16:19;25.17;;;18.95;;
80957;SDS011;70419;42.700;23.316;2023-07-31T04:18:45;28.60;;;20.38;;
80957;SDS011;70419;42.700;23.316;2023-07-31T04:21:11;29.88;;;20.35;;
80957;SDS011;70419;42.700;23.316;2023-07-31T04:23:37;25.77;;;18.73;;
80957;SDS011;70419;42.700;23.316;2023-07-31T04:26:03;26.17;;;18.85;;
80957;SDS011;70419;42.700;23.316;2023-07-31T04:28:28;26.70;;;20.10;;
80957;SDS011;70419;42.700;23.316;2023-07-31T04:30:56;29.60;;;18.75;;
80957;SDS011;70419;42.700;23.316;2023-07-31T04:33:24;28.15;;;19.65;;
80957;SDS011;70419;42.700;23.316;2023-07-31T04:35:50;25.73;;;19.27;;
80957;SDS011;70419;42.700;23.316;2023-07-31T04:38:18;25.50;;;18.88;;
80957;SDS011;70419;42.700;23.316;2023-07-31T04:40:44;26.42;;;18.33;;
80957;SDS011;70419;42.700;23.316;2023-07-31T04:43:10;26.20;;;18.75;;
80957;SDS011;70419;42.700;23.316;2023-07-31T04:45:36;26.67;;;19.30;;
80957;SDS011;70419;42.700;23.316;2023-07-31T04:48:01;25.23;;;18.38;;
80957;SDS011;70419;42.700;23.316;2023-07-31T04:50:27;24.63;;;17.85;;
80957;SDS011;70419;42.700;23.316;2023-07-31T04:52:56;24.02;;;18.48;;
80957;SDS011;70419;42.700;23.316;2023-07-31T04:55:21;24.33;;;17.63;;
80957;SDS011;70419;42.700;23.316;2023-07-31T04:57:47;27.90;;;19.30;;
80957;SDS011;70419;42.700;23.316;2023-07-31T05:00:13;29.08;;;18.48;;
80957;SDS011;70419;42.700;23.316;2023-07-31T05:02:39;24.52;;;18.50;;
80957;SDS011;70419;42.700;23.316;2023-07-31T05:05:05;23.95;;;17.35;;
80957;SDS011;70419;42.700;23.316;2023-07-31T05:07:30;24.35;;;16.95;;
80957;SDS011;70419;42.700;23.316;2023-07-31T05:09:56;20.55;;;15.48;;
80957;SDS011;70419;42.700;23.316;2023-07-31T05:12:22;21.83;;;16.75;;
80957;SDS011;70419;42.700;23.316;2023-07-31T05:14:47;19.17;;;15.70;;
80957;SDS011;70419;42.700;23.316;2023-07-31T05:17:13;23.00;;;15.98;;
80957;SDS011;70419;42.700;23.316;2023-07-31T05:19:39;21.00;;;15.65;;
80957;SDS011;70419;42.700;23.316;2023-07-31T05:22:05;15.68;;;13.52;;
80957;SDS011;70419;42.700;23.316;2023-07-31T05:24:31;18.92;;;15.48;;
80957;SDS011;70419;42.700;23.316;2023-07-31T05:26:57;17.65;;;14.23;;
80957;SDS011;70419;42.700;23.316;2023-07-31T05:29:22;17.20;;;13.30;;
80957;SDS011;70419;42.700;23.316;2023-07-31T05:31:48;14.75;;;12.38;;
80957;SDS011;70419;42.700;23.316;2023-07-31T05:34:14;19.70;;;13.35;;
80957;SDS011;70419;42.700;23.316;2023-07-31T05:36:39;16.73;;;13.23;;
80957;SDS011;70419;42.700;23.316;2023-07-31T05:39:05;15.65;;;12.82;;
80957;SDS011;70419;42.700;23.316;2023-07-31T05:41:33;16.60;;;11.48;;
80957;SDS011;70419;42.700;23.316;2023-07-31T05:44:00;14.65;;;10.48;;
80957;SDS011;70419;42.700;23.316;2023-07-31T05:46:26;16.38;;;10.60;;
80957;SDS011;70419;42.700;23.316;2023-07-31T05:48:52;14.88;;;9.68;;
80957;SDS011;70419;42.700;23.316;2023-07-31T05:51:17;15.25;;;10.85;;
80957;SDS011;70419;42.700;23.316;2023-07-31T05:53:43;12.57;;;9.68;;
80957;SDS011;70419;42.700;23.316;2023-07-31T05:56:09;14.93;;;9.52;;
80957;SDS011;70419;42.700;23.316;2023-07-31T05:58:34;13.00;;;8.68;;
80957;SDS011;70419;42.700;23.316;2023-07-31T06:01:00;12.18;;;8.00;;
80957;SDS011;70419;42.700;23.316;2023-07-31T06:03:26;11.05;;;7.28;;
80957;SDS011;70419;42.700;23.316;2023-07-31T06:05:52;9.82;;;8.07;;
80957;SDS011;70419;42.700;23.316;2023-07-31T06:08:17;11.27;;;7.30;;
80957;SDS011;70419;42.700;23.316;2023-07-31T06:10:43;9.82;;;7.07;;
80957;SDS011;70419;42.700;23.316;2023-07-31T06:13:09;11.80;;;8.23;;
80957;SDS011;70419;42.700;23.316;2023-07-31T06:15:34;10.45;;;6.90;;
80957;SDS011;70419;42.700;23.316;2023-07-31T06:18:00;8.48;;;6.80;;
80957;SDS011;70419;42.700;23.316;2023-07-31T06:20:27;9.90;;;6.18;;
80957;SDS011;70419;42.700;23.316;2023-07-31T06:22:53;11.70;;;5.57;;
80957;SDS011;70419;42.700;23.316;2023-07-31T06:25:19;12.77;;;5.53;;
80957;SDS011;70419;42.700;23.316;2023-07-31T06:27:45;11.07;;;5.20;;
80957;SDS011;70419;42.700;23.316;2023-07-31T06:30:11;7.20;;;4.82;;
80957;SDS011;70419;42.700;23.316;2023-07-31T06:32:36;8.68;;;4.75;;
80957;SDS011;70419;42.700;23.316;2023-07-31T06:35:02;7.28;;;4.97;;
80957;SDS011;70419;42.700;23.316;2023-07-31T06:37:29;8.50;;;5.30;;
80957;SDS011;70419;42.700;23.316;2023-07-31T06:39:54;7.25;;;4.80;;
80957;SDS011;70419;42.700;23.316;2023-07-31T06:42:20;7.82;;;4.75;;
80957;SDS011;70419;42.700;23.316;2023-07-31T06:44:46;7.50;;;4.57;;
80957;SDS011;70419;42.700;23.316;2023-07-31T06:47:12;12.88;;;5.20;;
80957;SDS011;70419;42.700;23.316;2023-07-31T06:49:40;8.93;;;4.38;;
80957;SDS011;70419;42.700;23.316;2023-07-31T06:52:06;7.03;;;4.30;;
80957;SDS011;70419;42.700;23.316;2023-07-31T06:54:32;8.93;;;4.65;;
80957;SDS011;70419;42.700;23.316;2023-07-31T06:56:58;7.55;;;4.85;;
80957;SDS011;70419;42.700;23.316;2023-07-31T06:59:24;7.40;;;3.72;;
80957;SDS011;70419;42.700;23.316;2023-07-31T07:01:49;7.97;;;4.03;;
80957;SDS011;70419;42.700;23.316;2023-07-31T07:04:15;9.60;;;3.78;;
80957;SDS011;70419;42.700;23.316;2023-07-31T07:06:41;14.68;;;5.28;;
80957;SDS011;70419;42.700;23.316;2023-07-31T07:09:07;7.43;;;4.25;;
80957;SDS011;70419;42.700;23.316;2023-07-31T07:11:33;5.43;;;3.72;;
80957;SDS011;70419;42.700;23.316;2023-07-31T07:13:59;6.65;;;4.28;;
80957;SDS011;70419;42.700;23.316;2023-07-31T07:16:25;7.40;;;3.63;;
80957;SDS011;70419;42.700;23.316;2023-07-31T07:18:55;7.53;;;3.58;;
80957;SDS011;70419;42.700;23.316;2023-07-31T07:21:21;6.38;;;3.33;;
80957;SDS011;70419;42.700;23.316;2023-07-31T07:23:47;6.32;;;3.53;;
80957;SDS011;70419;42.700;23.316;2023-07-31T07:26:13;8.20;;;4.13;;
80957;SDS011;70419;42.700;23.316;2023-07-31T07:28:39;6.40;;;3.95;;
80957;SDS011;70419;42.700;23.316;2023-07-31T07:31:05;5.93;;;3.50;;
80957;SDS011;70419;42.700;23.316;2023-07-31T07:33:30;5.88;;;3.55;;
80957;SDS011;70419;42.700;23.316;2023-07-31T07:35:59;8.00;;;3.50;;
80957;SDS011;70419;42.700;23.316;2023-07-31T07:38:26;6.82;;;3.20;;
80957;SDS011;70419;42.700;23.316;2023-07-31T07:40:52;5.47;;;3.60;;
80957;SDS011;70419;42.700;23.316;2023-07-31T07:43:18;6.05;;;3.28;;
80957;SDS011;70419;42.700;23.316;2023-07-31T07:45:44;7.88;;;4.22;;
80957;SDS011;70419;42.700;23.316;2023-07-31T07:48:10;7.07;;;3.38;;
80957;SDS011;70419;42.700;23.316;2023-07-31T07:50:39;9.70;;;3.30;;
80957;SDS011;70419;42.700;23.316;2023-07-31T07:53:04;8.15;;;3.13;;
80957;SDS011;70419;42.700;23.316;2023-07-31T07:55:31;5.90;;;3.20;;
80957;SDS011;70419;42.700;23.316;2023-07-31T07:57:56;6.55;;;3.17;;
80957;SDS011;70419;42.700;23.316;2023-07-31T08:00:22;6.70;;;3.20;;
80957;SDS011;70419;42.700;23.316;2023-07-31T08:02:48;8.23;;;3.10;;
80957;SDS011;70419;42.700;23.316;2023-07-31T08:05:13;12.15;;;3.45;;
80957;SDS011;70419;42.700;23.316;2023-07-31T08:07:39;4.93;;;2.80;;
80957;SDS011;70419;42.700;23.316;2023-07-31T08:10:05;7.97;;;3.20;;
80957;SDS011;70419;42.700;23.316;2023-07-31T08:12:31;6.65;;;2.88;;
80957;SDS011;70419;42.700;23.316;2023-07-31T08:14:57;5.25;;;2.88;;
80957;SDS011;70419;42.700;23.316;2023-07-31T08:17:25;5.65;;;2.85;;
80957;SDS011;70419;42.700;23.316;2023-07-31T08:19:50;5.25;;;2.85;;
80957;SDS011;70419;42.700;23.316;2023-07-31T08:22:16;4.38;;;2.88;;
80957;SDS011;70419;42.700;23.316;2023-07-31T08:24:42;4.53;;;2.65;;
80957;SDS011;70419;42.700;23.316;2023-07-31T08:27:09;5.97;;;3.05;;
80957;SDS011;70419;42.700;23.316;2023-07-31T08:29:35;4.32;;;3.00;;
80957;SDS011;70419;42.700;23.316;2023-07-31T08:32:03;6.28;;;2.90;;
80957;SDS011;70419;42.700;23.316;2023-07-31T08:34:31;5.00;;;3.00;;
80957;SDS011;70419;42.700;23.316;2023-07-31T08:36:56;8.10;;;3.50;;
80957;SDS011;70419;42.700;23.316;2023-07-31T08:39:22;6.22;;;3.95;;
80957;SDS011;70419;42.700;23.316;2023-07-31T08:41:48;10.55;;;3.08;;
80957;SDS011;70419;42.700;23.316;2023-07-31T08:44:15;5.97;;;3.28;;
80957;SDS011;70419;42.700;23.316;2023-07-31T08:46:42;5.65;;;3.17;;
80957;SDS011;70419;42.700;23.316;2023-07-31T08:49:08;6.43;;;3.20;;
80957;SDS011;70419;42.700;23.316;2023-07-31T08:51:35;5.00;;;2.75;;
80957;SDS011;70419;42.700;23.316;2023-07-31T08:54:03;7.47;;;3.25;;
80957;SDS011;70419;42.700;23.316;2023-07-31T08:56:31;6.03;;;3.00;;
80957;SDS011;70419;42.700;23.316;2023-07-31T08:58:57;6.93;;;4.78;;
80957;SDS011;70419;42.700;23.316;2023-07-31T09:01:27;6.63;;;3.90;;
80957;SDS011;70419;42.700;23.316;2023-07-31T09:04:01;4.20;;;2.67;;
80957;SDS011;70419;42.700;23.316;2023-07-31T09:06:29;4.53;;;2.97;;
80957;SDS011;70419;42.700;23.316;2023-07-31T09:08:56;8.25;;;3.20;;
80957;SDS011;70419;42.700;23.316;2023-07-31T09:11:22;4.85;;;2.60;;
80957;SDS011;70419;42.700;23.316;2023-07-31T09:16:15;3.22;;;2.45;;
80957;SDS011;70419;42.700;23.316;2023-07-31T09:18:56;5.90;;;3.20;;
80957;SDS011;70419;42.700;23.316;2023-07-31T09:21:23;4.47;;;2.67;;
80957;SDS011;70419;42.700;23.316;2023-07-31T09:23:50;5.25;;;2.60;;
80957;SDS011;70419;42.700;23.316;2023-07-31T09:26:35;5.43;;;3.40;;
80957;SDS011;70419;42.700;23.316;2023-07-31T09:29:04;7.32;;;3.08;;
80957;SDS011;70419;42.700;23.316;2023-07-31T09:31:40;4.53;;;2.70;;
80957;SDS011;70419;42.700;23.316;2023-07-31T09:34:10;4.10;;;2.87;;
80957;SDS011;70419;42.700;23.316;2023-07-31T09:36:40;4.35;;;2.78;;
80957;SDS011;70419;42.700;23.316;2023-07-31T09:39:10;5.55;;;3.28;;
80957;SDS011;70419;42.700;23.316;2023-07-31T09:41:38;6.95;;;3.35;;
80957;SDS011;70419;42.700;23.316;2023-07-31T09:44:04;4.68;;;2.63;;
80957;SDS011;70419;42.700;23.316;2023-07-31T09:46:30;6.25;;;2.63;;
80957;SDS011;70419;42.700;23.316;2023-07-31T09:49:09;3.80;;;2.58;;
80957;SDS011;70419;42.700;23.316;2023-07-31T09:51:37;6.70;;;2.75;;
80957;SDS011;70419;42.700;23.316;2023-07-31T09:54:15;4.05;;;2.70;;
80957;SDS011;70419;42.700;23.316;2023-07-31T09:56:43;4.03;;;2.53;;
80957;SDS011;70419;42.700;23.316;2023-07-31T09:59:12;4.70;;;2.78;;
80957;SDS011;70419;42.700;23.316;2023-07-31T10:01:42;3.65;;;2.50;;
80957;SDS011;70419;42.700;23.316;2023-07-31T10:04:11;5.40;;;2.25;;
80957;SDS011;70419;42.700;23.316;2023-07-31T10:06:38;4.80;;;2.60;;
80957;SDS011;70419;42.700;23.316;2023-07-31T10:09:06;7.55;;;3.20;;
80957;SDS011;70419;42.700;23.316;2023-07-31T10:11:42;5.45;;;3.15;;
80957;SDS011;70419;42.700;23.316;2023-07-31T10:14:15;8.93;;;2.50;;
80957;SDS011;70419;42.700;23.316;2023-07-31T10:16:45;4.97;;;2.40;;
80957;SDS011;70419;42.700;23.316;2023-07-31T10:19:11;5.20;;;2.30;;
80957;SDS011;70419;42.700;23.316;2023-07-31T10:21:37;4.28;;;2.17;;
80957;SDS011;70419;42.700;23.316;2023-07-31T10:24:05;6.85;;;2.65;;
80957;SDS011;70419;42.700;23.316;2023-07-31T10:26:32;3.50;;;2.10;;
80957;SDS011;70419;42.700;23.316;2023-07-31T10:29:04;6.30;;;2.15;;
80957;SDS011;70419;42.700;23.316;2023-07-31T10:31:31;6.35;;;2.40;;
80957;SDS011;70419;42.700;23.316;2023-07-31T10:33:59;8.35;;;2.60;;
80957;SDS011;70419;42.700;23.316;2023-07-31T10:36:25;6.65;;;2.10;;
80957;SDS011;70419;42.700;23.316;2023-07-31T10:38:52;6.22;;;2.55;;
80957;SDS011;70419;42.700;23.316;2023-07-31T10:41:27;4.22;;;2.13;;
80957;SDS011;70419;42.700;23.316;2023-07-31T10:43:57;4.03;;;2.63;;
80957;SDS011;70419;42.700;23.316;2023-07-31T10:46:24;4.57;;;2.40;;
80957;SDS011;70419;42.700;23.316;2023-07-31T10:48:56;4.57;;;2.53;;
80957;SDS011;70419;42.700;23.316;2023-07-31T10:51:33;10.45;;;2.30;;
80957;SDS011;70419;42.700;23.316;2023-07-31T10:54:13;3.45;;;2.60;;
80957;SDS011;70419;42.700;23.316;2023-07-31T10:56:44;3.33;;;2.47;;
80957;SDS011;70419;42.700;23.316;2023-07-31T10:59:15;8.48;;;2.70;;
80957;SDS011;70419;42.700;23.316;2023-07-31T11:01:52;5.50;;;2.42;;
80957;SDS011;70419;42.700;23.316;2023-07-31T11:04:25;4.35;;;2.40;;
80957;SDS011;70419;42.700;23.316;2023-07-31T11:06:59;3.58;;;1.98;;
80957;SDS011;70419;42.700;23.316;2023-07-31T11:09:30;4.85;;;2.30;;
80957;SDS011;70419;42.700;23.316;2023-07-31T11:11:59;3.00;;;2.17;;
80957;SDS011;70419;42.700;23.316;2023-07-31T11:14:25;5.20;;;2.25;;
80957;SDS011;70419;42.700;23.316;2023-07-31T11:16:51;4.55;;;2.10;;
80957;SDS011;70419;42.700;23.316;2023-07-31T11:19:24;3.00;;;2.22;;
80957;SDS011;70419;42.700;23.316;2023-07-31T11:21:53;2.50;;;2.13;;
80957;SDS011;70419;42.700;23.316;2023-07-31T11:24:19;6.13;;;2.53;;
80957;SDS011;70419;42.700;23.316;2023-07-31T11:26:51;4.57;;;2.30;;
80957;SDS011;70419;42.700;23.316;2023-07-31T11:29:18;5.03;;;2.72;;
80957;SDS011;70419;42.700;23.316;2023-07-31T11:31:44;9.25;;;2.42;;
80957;SDS011;70419;42.700;23.316;2023-07-31T11:34:11;2.97;;;1.70;;
80957;SDS011;70419;42.700;23.316;2023-07-31T11:36:37;4.97;;;2.17;;
80957;SDS011;70419;42.700;23.316;2023-07-31T11:39:07;6.00;;;2.50;;
80957;SDS011;70419;42.700;23.316;2023-07-31T11:41:36;10.25;;;2.70;;
80957;SDS011;70419;42.700;23.316;2023-07-31T11:44:06;9.00;;;2.67;;
80957;SDS011;70419;42.700;23.316;2023-07-31T11:46:32;4.40;;;2.80;;
80957;SDS011;70419;42.700;23.316;2023-07-31T11:49:01;5.50;;;2.72;;
80957;SDS011;70419;42.700;23.316;2023-07-31T11:51:27;6.05;;;3.13;;
80957;SDS011;70419;42.700;23.316;2023-07-31T11:53:55;6.28;;;3.00;;
80957;SDS011;70419;42.700;23.316;2023-07-31T11:56:23;4.70;;;3.10;;
80957;SDS011;70419;42.700;23.316;2023-07-31T11:58:51;4.93;;;3.03;;
80957;SDS011;70419;42.700;23.316;2023-07-31T12:01:20;3.95;;;2.80;;
80957;SDS011;70419;42.700;23.316;2023-07-31T12:03:47;4.40;;;3.28;;
80957;SDS011;70419;42.700;23.316;2023-07-31T12:08:40;4.40;;;3.77;;
80957;SDS011;70419;42.700;23.316;2023-07-31T12:11:06;6.33;;;4.57;;
80957;SDS011;70419;42.700;23.316;2023-07-31T12:13:34;5.00;;;4.03;;
80957;SDS011;70419;42.700;23.316;2023-07-31T12:16:01;6.45;;;4.90;;
80957;SDS011;70419;42.700;23.316;2023-07-31T12:18:29;5.97;;;4.40;;
80957;SDS011;70419;42.700;23.316;2023-07-31T12:21:00;5.97;;;4.80;;
80957;SDS011;70419;42.700;23.316;2023-07-31T12:23:27;6.20;;;5.35;;
80957;SDS011;70419;42.700;23.316;2023-07-31T12:26:15;7.32;;;5.95;;
80957;SDS011;70419;42.700;23.316;2023-07-31T12:31:18;10.48;;;5.82;;
80957;SDS011;70419;42.700;23.316;2023-07-31T12:33:46;7.68;;;5.50;;
80957;SDS011;70419;42.700;23.316;2023-07-31T12:36:15;6.53;;;4.55;;
80957;SDS011;70419;42.700;23.316;2023-07-31T12:38:43;6.97;;;4.88;;
80957;SDS011;70419;42.700;23.316;2023-07-31T12:41:10;5.38;;;4.80;;
80957;SDS011;70419;42.700;23.316;2023-07-31T12:43:39;5.32;;;4.22;;
80957;SDS011;70419;42.700;23.316;2023-07-31T12:46:06;6.68;;;5.47;;
80957;SDS011;70419;42.700;23.316;2023-07-31T12:48:33;5.88;;;4.93;;
80957;SDS011;70419;42.700;23.316;2023-07-31T12:51:00;6.88;;;5.10;;
80957;SDS011;70419;42.700;23.316;2023-07-31T12:53:26;5.75;;;5.00;;
80957;SDS011;70419;42.700;23.316;2023-07-31T12:55:52;8.70;;;5.70;;
80957;SDS011;70419;42.700;23.316;2023-07-31T12:58:18;7.07;;;5.28;;
80957;SDS011;70419;42.700;23.316;2023-07-31T13:00:45;11.25;;;4.93;;
80957;SDS011;70419;42.700;23.316;2023-07-31T13:03:11;12.10;;;5.65;;
80957;SDS011;70419;42.700;23.316;2023-07-31T13:05:37;8.10;;;5.50;;
80957;SDS011;70419;42.700;23.316;2023-07-31T13:08:03;7.95;;;5.35;;
80957;SDS011;70419;42.700;23.316;2023-07-31T13:10:29;7.45;;;5.07;;
80957;SDS011;70419;42.700;23.316;2023-07-31T13:12:55;6.85;;;4.80;;
80957;SDS011;70419;42.700;23.316;2023-07-31T13:15:21;6.22;;;4.75;;
80957;SDS011;70419;42.700;23.316;2023-07-31T13:17:47;6.30;;;4.57;;
80957;SDS011;70419;42.700;23.316;2023-07-31T13:20:12;10.80;;;5.22;;
80957;SDS011;70419;42.700;23.316;2023-07-31T13:22:38;11.93;;;4.68;;
80957;SDS011;70419;42.700;23.316;2023-07-31T13:25:04;5.07;;;4.10;;
80957;SDS011;70419;42.700;23.316;2023-07-31T13:27:31;12.23;;;4.30;;
80957;SDS011;70419;42.700;23.316;2023-07-31T13:29:56;5.72;;;4.25;;
80957;SDS011;70419;42.700;23.316;2023-07-31T13:32:22;6.65;;;4.07;;
80957;SDS011;70419;42.700;23.316;2023-07-31T13:34:48;7.97;;;4.20;;
80957;SDS011;70419;42.700;23.316;2023-07-31T13:37:14;10.23;;;4.15;;
80957;SDS011;70419;42.700;23.316;2023-07-31T13:39:40;6.28;;;4.35;;
80957;SDS011;70419;42.700;23.316;2023-07-31T13:42:07;7.75;;;4.47;;
80957;SDS011;70419;42.700;23.316;2023-07-31T13:44:36;5.97;;;3.78;;
80957;SDS011;70419;42.700;23.316;2023-07-31T13:47:08;11.05;;;4.05;;
80957;SDS011;70419;42.700;23.316;2023-07-31T13:49:34;5.00;;;3.67;;
80957;SDS011;70419;42.700;23.316;2023-07-31T13:52:01;6.13;;;3.78;;
80957;SDS011;70419;42.700;23.316;2023-07-31T13:54:29;6.00;;;4.00;;
80957;SDS011;70419;42.700;23.316;2023-07-31T13:59:39;7.80;;;4.00;;
80957;SDS011;70419;42.700;23.316;2023-07-31T14:02:05;6.03;;;3.70;;
80957;SDS011;70419;42.700;23.316;2023-07-31T14:04:31;7.93;;;3.88;;
80957;SDS011;70419;42.700;23.316;2023-07-31T14:06:57;5.20;;;3.50;;
80957;SDS011;70419;42.700;23.316;2023-07-31T14:09:22;4.97;;;3.92;;
80957;SDS011;70419;42.700;23.316;2023-07-31T14:11:48;6.78;;;4.05;;
80957;SDS011;70419;42.700;23.316;2023-07-31T14:14:14;11.05;;;4.20;;
80957;SDS011;70419;42.700;23.316;2023-07-31T14:16:40;6.47;;;4.13;;
80957;SDS011;70419;42.700;23.316;2023-07-31T14:19:05;5.47;;;3.63;;
80957;SDS011;70419;42.700;23.316;2023-07-31T14:21:33;9.07;;;4.43;;
80957;SDS011;70419;42.700;23.316;2023-07-31T14:23:59;12.02;;;4.80;;
80957;SDS011;70419;42.700;23.316;2023-07-31T14:26:24;5.57;;;4.05;;
80957;SDS011;70419;42.700;23.316;2023-07-31T14:28:50;7.88;;;3.65;;
80957;SDS011;70419;42.700;23.316;2023-07-31T14:31:16;6.93;;;3.45;;
80957;SDS011;70419;42.700;23.316;2023-07-31T14:33:42;7.63;;;3.95;;
80957;SDS011;70419;42.700;23.316;2023-07-31T14:36:08;5.93;;;3.88;;
80957;SDS011;70419;42.700;23.316;2023-07-31T14:38:33;8.95;;;3.67;;
80957;SDS011;70419;42.700;23.316;2023-07-31T14:40:59;6.47;;;3.83;;
80957;SDS011;70419;42.700;23.316;2023-07-31T14:43:25;6.78;;;3.72;;